sensor_id;sensor_type;location;lat;lon;timestamp;pressure;altitude;pressure_sealevel;temperature;humidity
19783;BME280;10051;40.294;-3.754;2022-07-06T00:01:18;94126.31;;;27.64;16.61
19783;BME280;10051;40.294;-3.754;2022-07-06T00:03:43;94147.09;;;27.85;16.69
19783;BME280;10051;40.294;-3.754;2022-07-06T00:06:09;94169.78;;;28.09;16.61
19783;BME280;10051;40.294;-3.754;2022-07-06T00:08:36;94174.06;;;28.14;16.70
19783;BME280;10051;40.294;-3.754;2022-07-06T00:11:02;94160.59;;;27.96;16.45
19783;BME280;10051;40.294;-3.754;2022-07-06T00:13:27;94181.78;;;28.01;16.55
19783;BME280;10051;40.294;-3.754;2022-07-06T00:15:53;94183.69;;;28.04;16.03
19783;BME280;10051;40.294;-3.754;2022-07-06T00:18:19;94147.88;;;27.78;16.53
19783;BME280;10051;40.294;-3.754;2022-07-06T00:20:44;94103.22;;;27.48;16.67
19783;BME280;10051;40.294;-3.754;2022-07-06T00:23:10;94121.69;;;27.57;16.72
19783;BME280;10051;40.294;-3.754;2022-07-06T00:25:36;94149.44;;;27.72;17.01
19783;BME280;10051;40.294;-3.754;2022-07-06T00:28:02;94205.31;;;28.04;17.06
19783;BME280;10051;40.294;-3.754;2022-07-06T00:30:27;94154.88;;;27.57;17.92
19783;BME280;10051;40.294;-3.754;2022-07-06T00:32:53;94147.53;;;27.47;19.20
19783;BME280;10051;40.294;-3.754;2022-07-06T00:35:18;94200.31;;;27.99;21.66
19783;BME280;10051;40.294;-3.754;2022-07-06T00:37:44;94169.88;;;27.66;24.56
19783;BME280;10051;40.294;-3.754;2022-07-06T00:40:09;94193.81;;;27.71;25.99
19783;BME280;10051;40.294;-3.754;2022-07-06T00:42:42;94162.94;;;27.39;28.13
19783;BME280;10051;40.294;-3.754;2022-07-06T00:45:10;94194.59;;;27.60;29.45
19783;BME280;10051;40.294;-3.754;2022-07-06T00:47:36;94144.06;;;27.21;30.43
19783;BME280;10051;40.294;-3.754;2022-07-06T00:50:03;94215.41;;;27.64;30.98
19783;BME280;10051;40.294;-3.754;2022-07-06T00:52:59;94210.00;;;27.64;32.27
19783;BME280;10051;40.294;-3.754;2022-07-06T00:55:28;94212.72;;;27.67;34.35
19783;BME280;10051;40.294;-3.754;2022-07-06T00:57:54;94228.16;;;27.67;37.07
19783;BME280;10051;40.294;-3.754;2022-07-06T01:00:23;94157.56;;;27.17;38.18
19783;BME280;10051;40.294;-3.754;2022-07-06T01:02:50;94132.50;;;26.99;39.15
19783;BME280;10051;40.294;-3.754;2022-07-06T01:05:16;94222.00;;;27.55;40.70
19783;BME280;10051;40.294;-3.754;2022-07-06T01:07:44;94227.38;;;27.63;43.94
19783;BME280;10051;40.294;-3.754;2022-07-06T01:10:11;94134.03;;;26.82;45.76
19783;BME280;10051;40.294;-3.754;2022-07-06T01:12:39;94189.53;;;26.97;47.99
19783;BME280;10051;40.294;-3.754;2022-07-06T01:15:06;94153.25;;;26.62;50.15
19783;BME280;10051;40.294;-3.754;2022-07-06T01:17:33;94227.72;;;27.07;50.61
19783;BME280;10051;40.294;-3.754;2022-07-06T01:20:25;94219.56;;;26.85;52.44
19783;BME280;10051;40.294;-3.754;2022-07-06T01:22:53;94178.66;;;26.61;53.07
19783;BME280;10051;40.294;-3.754;2022-07-06T01:25:19;94207.19;;;26.69;53.33
19783;BME280;10051;40.294;-3.754;2022-07-06T01:27:45;94168.59;;;26.43;53.83
19783;BME280;10051;40.294;-3.754;2022-07-06T01:30:14;94136.94;;;26.19;53.88
19783;BME280;10051;40.294;-3.754;2022-07-06T01:32:40;94205.22;;;26.63;54.39
19783;BME280;10051;40.294;-3.754;2022-07-06T01:35:08;94138.38;;;25.98;54.92
19783;BME280;10051;40.294;-3.754;2022-07-06T01:37:33;94170.34;;;26.07;55.14
19783;BME280;10051;40.294;-3.754;2022-07-06T01:40:00;94202.69;;;26.10;55.38
19783;BME280;10051;40.294;-3.754;2022-07-06T01:42:26;94212.47;;;26.40;55.05
19783;BME280;10051;40.294;-3.754;2022-07-06T01:44:52;94139.38;;;25.68;55.68
19783;BME280;10051;40.294;-3.754;2022-07-06T01:47:17;94178.75;;;25.94;55.57
19783;BME280;10051;40.294;-3.754;2022-07-06T01:49:43;94158.63;;;25.70;55.91
19783;BME280;10051;40.294;-3.754;2022-07-06T01:52:08;94158.97;;;25.65;56.40
19783;BME280;10051;40.294;-3.754;2022-07-06T01:54:34;94159.72;;;25.65;56.41
19783;BME280;10051;40.294;-3.754;2022-07-06T01:56:59;94149.91;;;25.39;56.89
19783;BME280;10051;40.294;-3.754;2022-07-06T01:59:25;94058.47;;;24.87;56.93
19783;BME280;10051;40.294;-3.754;2022-07-06T02:01:50;94116.47;;;25.33;56.79
19783;BME280;10051;40.294;-3.754;2022-07-06T02:04:15;94151.59;;;25.54;56.70
19783;BME280;10051;40.294;-3.754;2022-07-06T02:06:41;94157.34;;;25.49;57.01
19783;BME280;10051;40.294;-3.754;2022-07-06T02:09:06;94147.94;;;25.29;57.62
19783;BME280;10051;40.294;-3.754;2022-07-06T02:11:32;94215.22;;;25.77;57.67
19783;BME280;10051;40.294;-3.754;2022-07-06T02:13:57;94173.59;;;25.64;57.26
19783;BME280;10051;40.294;-3.754;2022-07-06T02:16:23;94143.38;;;25.33;57.15
19783;BME280;10051;40.294;-3.754;2022-07-06T02:18:48;94147.31;;;25.46;57.02
19783;BME280;10051;40.294;-3.754;2022-07-06T02:21:13;94099.25;;;24.92;57.82
19783;BME280;10051;40.294;-3.754;2022-07-06T02:23:39;94151.59;;;25.02;58.34
19783;BME280;10051;40.294;-3.754;2022-07-06T02:26:04;94172.56;;;25.34;58.32
19783;BME280;10051;40.294;-3.754;2022-07-06T02:28:30;94176.41;;;25.30;58.23
19783;BME280;10051;40.294;-3.754;2022-07-06T02:30:56;94102.97;;;24.80;58.02
19783;BME280;10051;40.294;-3.754;2022-07-06T02:33:21;94144.72;;;25.12;57.82
19783;BME280;10051;40.294;-3.754;2022-07-06T02:35:46;94210.34;;;25.45;58.06
19783;BME280;10051;40.294;-3.754;2022-07-06T02:38:12;94100.50;;;24.64;57.96
19783;BME280;10051;40.294;-3.754;2022-07-06T02:40:38;94214.31;;;25.59;57.83
19783;BME280;10051;40.294;-3.754;2022-07-06T02:43:04;94248.97;;;25.67;57.79
19783;BME280;10051;40.294;-3.754;2022-07-06T02:45:30;94208.38;;;25.38;58.04
19783;BME280;10051;40.294;-3.754;2022-07-06T02:47:55;94165.50;;;25.12;58.17
19783;BME280;10051;40.294;-3.754;2022-07-06T02:50:23;94197.91;;;25.30;58.28
19783;BME280;10051;40.294;-3.754;2022-07-06T02:52:48;94160.72;;;24.94;58.64
19783;BME280;10051;40.294;-3.754;2022-07-06T02:55:14;94197.47;;;25.20;58.98
19783;BME280;10051;40.294;-3.754;2022-07-06T02:57:39;94232.59;;;25.38;59.18
19783;BME280;10051;40.294;-3.754;2022-07-06T03:00:06;94206.25;;;25.17;59.46
19783;BME280;10051;40.294;-3.754;2022-07-06T03:02:31;94155.25;;;24.83;59.27
19783;BME280;10051;40.294;-3.754;2022-07-06T03:04:57;94241.81;;;25.41;59.59
19783;BME280;10051;40.294;-3.754;2022-07-06T03:07:22;94226.31;;;25.27;59.80
19783;BME280;10051;40.294;-3.754;2022-07-06T03:09:48;94221.69;;;25.24;59.61
19783;BME280;10051;40.294;-3.754;2022-07-06T03:12:13;94190.38;;;25.01;59.68
19783;BME280;10051;40.294;-3.754;2022-07-06T03:14:39;94218.91;;;25.13;59.67
19783;BME280;10051;40.294;-3.754;2022-07-06T03:17:04;94097.47;;;24.28;59.88
19783;BME280;10051;40.294;-3.754;2022-07-06T03:19:29;94169.38;;;24.73;59.92
19783;BME280;10051;40.294;-3.754;2022-07-06T03:21:55;94231.69;;;25.23;60.06
19783;BME280;10051;40.294;-3.754;2022-07-06T03:24:20;94186.66;;;24.75;60.43
19783;BME280;10051;40.294;-3.754;2022-07-06T03:26:46;94208.28;;;24.86;60.70
19783;BME280;10051;40.294;-3.754;2022-07-06T03:29:11;94175.25;;;24.52;60.80
19783;BME280;10051;40.294;-3.754;2022-07-06T03:31:37;94162.88;;;24.43;61.12
19783;BME280;10051;40.294;-3.754;2022-07-06T03:34:02;94169.56;;;24.57;60.54
19783;BME280;10051;40.294;-3.754;2022-07-06T03:36:28;94193.63;;;24.80;60.40
19783;BME280;10051;40.294;-3.754;2022-07-06T03:38:53;94166.56;;;24.65;59.96
19783;BME280;10051;40.294;-3.754;2022-07-06T03:41:19;94107.91;;;24.33;59.76
19783;BME280;10051;40.294;-3.754;2022-07-06T03:43:44;94211.78;;;24.90;60.38
19783;BME280;10051;40.294;-3.754;2022-07-06T03:46:09;94209.69;;;24.73;60.77
19783;BME280;10051;40.294;-3.754;2022-07-06T03:48:35;94172.78;;;24.35;61.72
19783;BME280;10051;40.294;-3.754;2022-07-06T03:51:00;94191.63;;;24.39;61.83
19783;BME280;10051;40.294;-3.754;2022-07-06T03:53:26;94238.56;;;24.79;61.77
19783;BME280;10051;40.294;-3.754;2022-07-06T03:55:52;94214.47;;;24.56;61.95
19783;BME280;10051;40.294;-3.754;2022-07-06T03:58:36;94195.34;;;24.31;61.87
19783;BME280;10051;40.294;-3.754;2022-07-06T04:01:01;94267.72;;;24.77;61.79
19783;BME280;10051;40.294;-3.754;2022-07-06T04:03:27;94233.22;;;24.49;61.64
19783;BME280;10051;40.294;-3.754;2022-07-06T04:05:53;94205.38;;;24.34;61.56
19783;BME280;10051;40.294;-3.754;2022-07-06T04:08:18;94263.75;;;24.68;61.28
19783;BME280;10051;40.294;-3.754;2022-07-06T04:10:45;94248.75;;;24.67;60.90
19783;BME280;10051;40.294;-3.754;2022-07-06T04:13:10;94248.53;;;24.45;61.45
19783;BME280;10051;40.294;-3.754;2022-07-06T04:15:35;94258.53;;;24.48;61.63
19783;BME280;10051;40.294;-3.754;2022-07-06T04:18:01;94248.56;;;24.52;61.37
19783;BME280;10051;40.294;-3.754;2022-07-06T04:20:26;94265.38;;;24.72;60.95
19783;BME280;10051;40.294;-3.754;2022-07-06T04:22:52;94275.47;;;24.83;60.45
19783;BME280;10051;40.294;-3.754;2022-07-06T04:25:18;94214.34;;;24.45;60.18
19783;BME280;10051;40.294;-3.754;2022-07-06T04:27:43;94281.72;;;24.90;59.81
19783;BME280;10051;40.294;-3.754;2022-07-06T04:30:10;94263.41;;;24.69;59.44
19783;BME280;10051;40.294;-3.754;2022-07-06T04:32:36;94251.34;;;24.59;59.51
19783;BME280;10051;40.294;-3.754;2022-07-06T04:35:03;94219.28;;;24.40;59.33
19783;BME280;10051;40.294;-3.754;2022-07-06T04:37:29;94120.94;;;23.70;59.79
19783;BME280;10051;40.294;-3.754;2022-07-06T04:39:54;94243.88;;;24.42;60.09
19783;BME280;10051;40.294;-3.754;2022-07-06T04:42:20;94239.97;;;24.35;60.16
19783;BME280;10051;40.294;-3.754;2022-07-06T04:44:45;94253.81;;;24.38;60.29
19783;BME280;10051;40.294;-3.754;2022-07-06T04:47:12;94256.91;;;24.40;60.58
19783;BME280;10051;40.294;-3.754;2022-07-06T04:49:37;94257.63;;;24.37;60.02
19783;BME280;10051;40.294;-3.754;2022-07-06T04:52:03;94229.75;;;24.18;59.91
19783;BME280;10051;40.294;-3.754;2022-07-06T04:54:29;94311.09;;;24.76;60.36
19783;BME280;10051;40.294;-3.754;2022-07-06T04:56:54;94295.41;;;24.82;60.01
19783;BME280;10051;40.294;-3.754;2022-07-06T04:59:20;94239.72;;;24.48;60.03
19783;BME280;10051;40.294;-3.754;2022-07-06T05:01:45;94241.44;;;24.33;60.67
19783;BME280;10051;40.294;-3.754;2022-07-06T05:04:11;94307.69;;;24.52;61.60
19783;BME280;10051;40.294;-3.754;2022-07-06T05:06:36;94296.69;;;24.30;62.08
19783;BME280;10051;40.294;-3.754;2022-07-06T05:09:02;94237.38;;;23.89;62.06
19783;BME280;10051;40.294;-3.754;2022-07-06T05:11:28;94238.16;;;23.89;61.61
19783;BME280;10051;40.294;-3.754;2022-07-06T05:13:53;94252.06;;;23.95;61.39
19783;BME280;10051;40.294;-3.754;2022-07-06T05:16:20;94321.09;;;24.48;61.11
19783;BME280;10051;40.294;-3.754;2022-07-06T05:18:45;94222.63;;;23.75;60.85
19783;BME280;10051;40.294;-3.754;2022-07-06T05:21:10;94253.91;;;23.91;60.93
19783;BME280;10051;40.294;-3.754;2022-07-06T05:23:36;94243.47;;;23.86;60.23
19783;BME280;10051;40.294;-3.754;2022-07-06T05:26:01;94263.84;;;24.14;60.00
19783;BME280;10051;40.294;-3.754;2022-07-06T05:28:27;94266.53;;;24.14;59.64
19783;BME280;10051;40.294;-3.754;2022-07-06T05:30:52;94302.06;;;24.30;59.87
19783;BME280;10051;40.294;-3.754;2022-07-06T05:33:18;94285.13;;;24.26;59.63
19783;BME280;10051;40.294;-3.754;2022-07-06T05:35:43;94315.59;;;24.38;59.19
19783;BME280;10051;40.294;-3.754;2022-07-06T05:38:09;94257.97;;;24.04;59.08
19783;BME280;10051;40.294;-3.754;2022-07-06T05:40:35;94328.72;;;24.43;59.04
19783;BME280;10051;40.294;-3.754;2022-07-06T05:43:01;94308.72;;;24.40;58.25
19783;BME280;10051;40.294;-3.754;2022-07-06T05:45:26;94344.78;;;25.34;55.37
19783;BME280;10051;40.294;-3.754;2022-07-06T05:47:52;94299.44;;;25.33;53.90
19783;BME280;10051;40.294;-3.754;2022-07-06T05:50:36;94295.38;;;25.12;54.33
19783;BME280;10051;40.294;-3.754;2022-07-06T05:53:03;94252.69;;;24.73;54.49
19783;BME280;10051;40.294;-3.754;2022-07-06T05:55:29;94331.59;;;25.22;54.33
19783;BME280;10051;40.294;-3.754;2022-07-06T05:57:55;94293.28;;;24.94;54.35
19783;BME280;10051;40.294;-3.754;2022-07-06T06:00:25;94329.69;;;25.22;53.43
19783;BME280;10051;40.294;-3.754;2022-07-06T06:02:51;94329.31;;;25.24;52.98
19783;BME280;10051;40.294;-3.754;2022-07-06T06:05:17;94315.44;;;25.22;52.01
19783;BME280;10051;40.294;-3.754;2022-07-06T06:07:43;94162.59;;;24.18;51.76
19783;BME280;10051;40.294;-3.754;2022-07-06T06:10:12;94278.66;;;24.95;51.01
19783;BME280;10051;40.294;-3.754;2022-07-06T06:12:39;94290.63;;;24.98;50.93
19783;BME280;10051;40.294;-3.754;2022-07-06T06:15:05;94207.88;;;24.50;50.53
19783;BME280;10051;40.294;-3.754;2022-07-06T06:17:31;94246.94;;;24.74;48.80
19783;BME280;10051;40.294;-3.754;2022-07-06T06:19:57;94256.38;;;24.91;48.36
19783;BME280;10051;40.294;-3.754;2022-07-06T06:22:23;94358.94;;;25.65;46.85
19783;BME280;10051;40.294;-3.754;2022-07-06T06:24:49;94343.59;;;25.66;46.22
19783;BME280;10051;40.294;-3.754;2022-07-06T06:27:14;94238.38;;;24.99;46.36
19783;BME280;10051;40.294;-3.754;2022-07-06T06:29:40;94276.34;;;25.32;46.21
19783;BME280;10051;40.294;-3.754;2022-07-06T06:32:07;94310.75;;;25.49;46.25
19783;BME280;10051;40.294;-3.754;2022-07-06T06:34:33;94232.28;;;25.06;46.11
19783;BME280;10051;40.294;-3.754;2022-07-06T06:36:59;94350.00;;;25.95;46.55
19783;BME280;10051;40.294;-3.754;2022-07-06T06:39:25;94314.44;;;25.75;46.47
19783;BME280;10051;40.294;-3.754;2022-07-06T06:41:50;94338.06;;;25.96;46.48
19783;BME280;10051;40.294;-3.754;2022-07-06T06:44:16;94362.94;;;26.24;46.31
19783;BME280;10051;40.294;-3.754;2022-07-06T06:46:43;94280.72;;;25.92;45.61
19783;BME280;10051;40.294;-3.754;2022-07-06T06:49:09;94345.72;;;26.43;45.72
19783;BME280;10051;40.294;-3.754;2022-07-06T06:51:34;94334.25;;;26.57;45.03
19783;BME280;10051;40.294;-3.754;2022-07-06T06:54:00;94338.44;;;26.54;45.26
19783;BME280;10051;40.294;-3.754;2022-07-06T06:56:25;94325.78;;;26.58;45.03
19783;BME280;10051;40.294;-3.754;2022-07-06T06:58:51;94273.09;;;26.05;45.29
19783;BME280;10051;40.294;-3.754;2022-07-06T07:01:16;94251.53;;;26.05;44.77
19783;BME280;10051;40.294;-3.754;2022-07-06T07:03:42;94353.72;;;26.92;43.84
19783;BME280;10051;40.294;-3.754;2022-07-06T07:06:07;94333.69;;;27.00;43.00
19783;BME280;10051;40.294;-3.754;2022-07-06T07:08:33;94329.91;;;27.23;42.23
19783;BME280;10051;40.294;-3.754;2022-07-06T07:10:58;94342.31;;;27.53;42.22
19783;BME280;10051;40.294;-3.754;2022-07-06T07:13:24;94391.00;;;27.93;42.07
19783;BME280;10051;40.294;-3.754;2022-07-06T07:15:50;94381.72;;;27.86;41.54
19783;BME280;10051;40.294;-3.754;2022-07-06T07:18:16;94323.03;;;27.61;41.36
19783;BME280;10051;40.294;-3.754;2022-07-06T07:20:41;94328.84;;;27.56;41.11
19783;BME280;10051;40.294;-3.754;2022-07-06T07:23:07;94379.41;;;27.88;40.47
19783;BME280;10051;40.294;-3.754;2022-07-06T07:25:32;94350.84;;;27.58;40.95
19783;BME280;10051;40.294;-3.754;2022-07-06T07:27:58;94384.03;;;27.73;41.08
19783;BME280;10051;40.294;-3.754;2022-07-06T07:30:24;94370.16;;;27.79;40.62
19783;BME280;10051;40.294;-3.754;2022-07-06T07:32:49;94362.03;;;27.75;40.47
19783;BME280;10051;40.294;-3.754;2022-07-06T07:35:15;94272.06;;;27.13;40.21
19783;BME280;10051;40.294;-3.754;2022-07-06T07:37:40;94283.31;;;27.51;40.01
19783;BME280;10051;40.294;-3.754;2022-07-06T07:40:06;94315.28;;;27.42;40.65
19783;BME280;10051;40.294;-3.754;2022-07-06T07:42:32;94384.03;;;27.95;40.45
19783;BME280;10051;40.294;-3.754;2022-07-06T07:44:58;94334.25;;;27.74;39.88
19783;BME280;10051;40.294;-3.754;2022-07-06T07:47:23;94347.78;;;28.00;39.48
19783;BME280;10051;40.294;-3.754;2022-07-06T07:49:48;94261.28;;;27.38;39.16
19783;BME280;10051;40.294;-3.754;2022-07-06T07:52:14;94223.09;;;27.43;38.13
19783;BME280;10051;40.294;-3.754;2022-07-06T07:54:40;94315.31;;;28.07;36.97
19783;BME280;10051;40.294;-3.754;2022-07-06T07:57:05;94329.63;;;28.26;37.34
19783;BME280;10051;40.294;-3.754;2022-07-06T07:59:31;94345.03;;;28.47;36.31
19783;BME280;10051;40.294;-3.754;2022-07-06T08:01:56;94381.69;;;28.66;36.26
19783;BME280;10051;40.294;-3.754;2022-07-06T08:04:22;94369.31;;;28.76;35.94
19783;BME280;10051;40.294;-3.754;2022-07-06T08:06:47;94282.16;;;27.96;36.13
19783;BME280;10051;40.294;-3.754;2022-07-06T08:09:13;94212.72;;;27.24;36.95
19783;BME280;10051;40.294;-3.754;2022-07-06T08:11:39;94342.75;;;28.24;37.07
19783;BME280;10051;40.294;-3.754;2022-07-06T08:14:05;94399.00;;;29.08;36.63
19783;BME280;10051;40.294;-3.754;2022-07-06T08:16:31;94394.59;;;29.36;36.15
19783;BME280;10051;40.294;-3.754;2022-07-06T08:18:57;94303.53;;;28.97;35.47
19783;BME280;10051;40.294;-3.754;2022-07-06T08:21:22;94381.47;;;29.38;35.55
19783;BME280;10051;40.294;-3.754;2022-07-06T08:23:47;94395.38;;;29.41;35.02
19783;BME280;10051;40.294;-3.754;2022-07-06T08:26:13;94399.09;;;29.76;34.69
19783;BME280;10051;40.294;-3.754;2022-07-06T08:28:39;94348.03;;;29.71;33.63
19783;BME280;10051;40.294;-3.754;2022-07-06T08:31:04;94346.06;;;29.75;34.07
19783;BME280;10051;40.294;-3.754;2022-07-06T08:33:30;94380.38;;;29.96;35.00
19783;BME280;10051;40.294;-3.754;2022-07-06T08:35:55;94396.50;;;30.14;33.51
19783;BME280;10051;40.294;-3.754;2022-07-06T08:38:20;94398.94;;;30.01;33.36
19783;BME280;10051;40.294;-3.754;2022-07-06T08:40:48;94402.03;;;30.00;33.54
19783;BME280;10051;40.294;-3.754;2022-07-06T08:43:15;94404.91;;;29.67;33.29
19783;BME280;10051;40.294;-3.754;2022-07-06T08:45:41;94398.22;;;29.86;33.43
19783;BME280;10051;40.294;-3.754;2022-07-06T08:48:10;94401.31;;;29.88;33.48
19783;BME280;10051;40.294;-3.754;2022-07-06T08:50:37;94363.69;;;29.41;33.66
19783;BME280;10051;40.294;-3.754;2022-07-06T08:53:03;94413.16;;;29.49;33.85
19783;BME280;10051;40.294;-3.754;2022-07-06T08:55:29;94357.50;;;29.33;33.66
19783;BME280;10051;40.294;-3.754;2022-07-06T08:57:55;94396.34;;;29.79;32.24
19783;BME280;10051;40.294;-3.754;2022-07-06T09:00:23;94361.75;;;29.38;32.64
19783;BME280;10051;40.294;-3.754;2022-07-06T09:02:50;94405.59;;;29.82;31.96
19783;BME280;10051;40.294;-3.754;2022-07-06T09:05:21;94395.84;;;29.95;30.79
19783;BME280;10051;40.294;-3.754;2022-07-06T09:07:51;94362.94;;;29.97;30.78
19783;BME280;10051;40.294;-3.754;2022-07-06T09:10:20;94349.34;;;30.04;30.50
19783;BME280;10051;40.294;-3.754;2022-07-06T09:12:46;94367.13;;;30.51;29.98
19783;BME280;10051;40.294;-3.754;2022-07-06T09:15:12;94415.22;;;30.89;29.03
19783;BME280;10051;40.294;-3.754;2022-07-06T09:17:39;94417.44;;;30.97;28.26
19783;BME280;10051;40.294;-3.754;2022-07-06T09:20:09;94381.72;;;31.03;27.80
19783;BME280;10051;40.294;-3.754;2022-07-06T09:22:36;94408.56;;;31.32;27.73
19783;BME280;10051;40.294;-3.754;2022-07-06T09:25:04;94412.28;;;31.45;26.71
19783;BME280;10051;40.294;-3.754;2022-07-06T09:27:30;94403.72;;;31.47;26.64
19783;BME280;10051;40.294;-3.754;2022-07-06T09:29:59;94308.56;;;30.92;26.80
19783;BME280;10051;40.294;-3.754;2022-07-06T09:32:24;94377.16;;;31.58;26.95
19783;BME280;10051;40.294;-3.754;2022-07-06T09:34:50;94369.38;;;31.60;26.78
19783;BME280;10051;40.294;-3.754;2022-07-06T09:37:16;94342.31;;;31.53;26.20
19783;BME280;10051;40.294;-3.754;2022-07-06T09:39:42;94421.38;;;32.17;26.50
19783;BME280;10051;40.294;-3.754;2022-07-06T09:42:08;94407.44;;;32.15;25.65
19783;BME280;10051;40.294;-3.754;2022-07-06T09:44:35;94361.13;;;31.95;25.81
19783;BME280;10051;40.294;-3.754;2022-07-06T09:47:09;94422.63;;;32.40;26.12
19783;BME280;10051;40.294;-3.754;2022-07-06T09:49:37;94351.75;;;31.99;25.97
19783;BME280;10051;40.294;-3.754;2022-07-06T09:52:08;94431.34;;;32.51;25.93
19783;BME280;10051;40.294;-3.754;2022-07-06T09:54:34;94424.69;;;32.56;25.47
19783;BME280;10051;40.294;-3.754;2022-07-06T09:57:00;94394.00;;;32.31;25.03
19783;BME280;10051;40.294;-3.754;2022-07-06T09:59:31;94411.81;;;32.56;24.93
19783;BME280;10051;40.294;-3.754;2022-07-06T10:01:58;94409.81;;;32.60;25.25
19783;BME280;10051;40.294;-3.754;2022-07-06T10:04:26;94335.19;;;31.90;24.99
19783;BME280;10051;40.294;-3.754;2022-07-06T10:06:53;94325.75;;;31.98;25.38
19783;BME280;10051;40.294;-3.754;2022-07-06T10:09:20;94364.06;;;32.31;25.54
19783;BME280;10051;40.294;-3.754;2022-07-06T10:11:53;94431.03;;;32.93;25.00
19783;BME280;10051;40.294;-3.754;2022-07-06T10:14:23;94426.88;;;33.09;25.26
19783;BME280;10051;40.294;-3.754;2022-07-06T10:16:50;94413.66;;;33.07;24.67
19783;BME280;10051;40.294;-3.754;2022-07-06T10:19:17;94341.72;;;32.44;24.94
19783;BME280;10051;40.294;-3.754;2022-07-06T10:21:43;94444.66;;;33.13;24.80
19783;BME280;10051;40.294;-3.754;2022-07-06T10:24:10;94442.78;;;33.10;24.41
19783;BME280;10051;40.294;-3.754;2022-07-06T10:26:38;94412.13;;;32.62;24.95
19783;BME280;10051;40.294;-3.754;2022-07-06T10:29:05;94414.31;;;32.71;24.93
19783;BME280;10051;40.294;-3.754;2022-07-06T10:31:32;94382.41;;;32.71;25.27
19783;BME280;10051;40.294;-3.754;2022-07-06T10:34:04;94421.78;;;33.11;24.86
19783;BME280;10051;40.294;-3.754;2022-07-06T10:36:30;94456.97;;;33.21;24.86
19783;BME280;10051;40.294;-3.754;2022-07-06T10:38:56;94444.41;;;33.28;24.69
19783;BME280;10051;40.294;-3.754;2022-07-06T10:41:32;94419.59;;;33.22;24.72
19783;BME280;10051;40.294;-3.754;2022-07-06T10:44:18;94429.31;;;33.43;24.55
19783;BME280;10051;40.294;-3.754;2022-07-06T10:49:18;94436.50;;;33.54;24.64
19783;BME280;10051;40.294;-3.754;2022-07-06T10:51:44;94430.00;;;33.47;24.85
19783;BME280;10051;40.294;-3.754;2022-07-06T10:54:10;94392.56;;;33.31;24.55
19783;BME280;10051;40.294;-3.754;2022-07-06T10:56:37;94413.81;;;33.40;25.08
19783;BME280;10051;40.294;-3.754;2022-07-06T10:59:09;94435.88;;;33.66;24.99
19783;BME280;10051;40.294;-3.754;2022-07-06T11:01:35;94435.06;;;33.65;25.22
19783;BME280;10051;40.294;-3.754;2022-07-06T11:06:29;94444.38;;;33.68;25.64
19783;BME280;10051;40.294;-3.754;2022-07-06T11:16:24;94389.19;;;33.64;25.93
19783;BME280;10051;40.294;-3.754;2022-07-06T11:19:12;94422.59;;;33.85;25.88
19783;BME280;10051;40.294;-3.754;2022-07-06T11:21:48;94428.78;;;34.05;25.04
19783;BME280;10051;40.294;-3.754;2022-07-06T11:24:19;94424.72;;;34.14;25.12
19783;BME280;10051;40.294;-3.754;2022-07-06T11:26:47;94423.00;;;34.20;25.23
19783;BME280;10051;40.294;-3.754;2022-07-06T11:29:14;94374.19;;;33.89;25.25
19783;BME280;10051;40.294;-3.754;2022-07-06T11:31:41;94402.47;;;33.99;25.46
19783;BME280;10051;40.294;-3.754;2022-07-06T11:34:09;94409.59;;;34.09;26.07
19783;BME280;10051;40.294;-3.754;2022-07-06T11:36:35;94409.88;;;34.15;26.31
19783;BME280;10051;40.294;-3.754;2022-07-06T11:39:00;94393.75;;;34.04;26.39
19783;BME280;10051;40.294;-3.754;2022-07-06T11:41:26;94384.47;;;34.01;26.40
19783;BME280;10051;40.294;-3.754;2022-07-06T11:43:52;94399.66;;;34.19;27.04
19783;BME280;10051;40.294;-3.754;2022-07-06T11:49:13;94391.97;;;34.14;26.91
19783;BME280;10051;40.294;-3.754;2022-07-06T11:51:39;94361.63;;;33.95;27.07
19783;BME280;10051;40.294;-3.754;2022-07-06T11:54:12;94383.28;;;34.19;26.63
19783;BME280;10051;40.294;-3.754;2022-07-06T11:56:46;94373.03;;;34.23;26.77
19783;BME280;10051;40.294;-3.754;2022-07-06T11:59:11;94324.66;;;33.94;27.68
19783;BME280;10051;40.294;-3.754;2022-07-06T12:01:37;94344.75;;;34.17;27.72
19783;BME280;10051;40.294;-3.754;2022-07-06T12:04:07;94336.56;;;34.17;27.53
19783;BME280;10051;40.294;-3.754;2022-07-06T12:06:33;94355.41;;;34.44;27.32
19783;BME280;10051;40.294;-3.754;2022-07-06T12:09:00;94353.56;;;34.37;27.02
19783;BME280;10051;40.294;-3.754;2022-07-06T12:11:33;94375.50;;;34.50;27.18
19783;BME280;10051;40.294;-3.754;2022-07-06T12:14:20;94371.50;;;34.55;27.17
19783;BME280;10051;40.294;-3.754;2022-07-06T12:16:48;94311.75;;;34.28;26.56
19783;BME280;10051;40.294;-3.754;2022-07-06T12:19:15;94380.75;;;34.74;26.50
19783;BME280;10051;40.294;-3.754;2022-07-06T12:21:48;94376.09;;;34.88;25.89
19783;BME280;10051;40.294;-3.754;2022-07-06T12:24:20;94379.47;;;34.92;24.08
19783;BME280;10051;40.294;-3.754;2022-07-06T12:26:47;94372.81;;;34.93;24.01
19783;BME280;10051;40.294;-3.754;2022-07-06T12:29:13;94376.16;;;35.01;23.90
19783;BME280;10051;40.294;-3.754;2022-07-06T12:31:41;94372.06;;;34.92;24.77
19783;BME280;10051;40.294;-3.754;2022-07-06T12:34:13;94360.28;;;34.95;23.98
19783;BME280;10051;40.294;-3.754;2022-07-06T12:36:47;94374.72;;;34.96;23.90
19783;BME280;10051;40.294;-3.754;2022-07-06T12:39:17;94348.53;;;34.82;23.75
19783;BME280;10051;40.294;-3.754;2022-07-06T12:41:48;94368.72;;;35.01;22.94
19783;BME280;10051;40.294;-3.754;2022-07-06T12:44:17;94298.31;;;34.33;22.27
19783;BME280;10051;40.294;-3.754;2022-07-06T12:46:43;94349.38;;;34.66;23.16
19783;BME280;10051;40.294;-3.754;2022-07-06T12:49:22;94352.06;;;34.82;23.42
19783;BME280;10051;40.294;-3.754;2022-07-06T12:52:15;94346.38;;;34.90;23.15
19783;BME280;10051;40.294;-3.754;2022-07-06T13:05:03;94366.78;;;35.14;22.50
19783;BME280;10051;40.294;-3.754;2022-07-06T13:07:30;94277.19;;;34.67;22.24
19783;BME280;10051;40.294;-3.754;2022-07-06T13:09:58;94357.09;;;35.26;21.30
19783;BME280;10051;40.294;-3.754;2022-07-06T13:12:24;94352.50;;;35.23;21.18
19783;BME280;10051;40.294;-3.754;2022-07-06T13:14:49;94351.94;;;35.28;20.91